METAR Data
IDs: Format: Raw Decoded Include TAF

Data at: 0117 UTC 25 Mar 2019

KAMW 250053Z AUTO 02008KT 6SM -RA BR OVC006 07/07 A3008 RMK AO2 RAB22 SLP190 P0002 T00720067
KAMW 242353Z AUTO 02009KT 6SM BR OVC007 08/07 A3006 RMK AO2 SLP183 60000 T00780067 10083 20072 53010
KAMW 242253Z AUTO 03008KT 5SM BR OVC006 08/07 A3005 RMK AO2 CIG 004V009 SLP177 T00780067
KAMW 242250Z AUTO 03007KT 4SM BR OVC006 08/07 A3005 RMK AO2 CIG 004V009
KAMW 242234Z AUTO 03009KT 3SM BR OVC003 08/07 A3004 RMK AO2 T00780067
KAMW 242153Z AUTO 04010KT 2 1/2SM BR OVC004 08/07 A3003 RMK AO2 SLP172 T00780067
KAMW 242136Z AUTO 03014KT 3SM BR OVC004 08/07 A3003 RMK AO2 T00780067
KAMW 242053Z AUTO 02010KT 4SM BR OVC006 08/07 A3002 RMK AO2 SLP167 60000 T00830072 53006
KAMW 242019Z AUTO 03006KT 4SM BR OVC005 08/07 A3001 RMK AO2 T00830067
KAMW 241953Z AUTO 04007KT 3SM BR OVC004 08/07 A3000 RMK AO2 SLP160 T00830072
KAMW 241853Z AUTO 04008KT 2 1/2SM BR OVC004 08/07 A3000 RMK AO2 RAB1758E30 SLP161 P0000 T00780072
KAMW 241831Z AUTO 05008KT 2 1/2SM BR OVC004 08/07 A3000 RMK AO2 RAB1758E30 P0000 T00830072
KAMW 241753Z AUTO 06005KT 3SM BR OVC004 08/07 A3001 RMK AO2 SLP164 60001 T00780072 10078 20056 58002
KAMW 241706Z AUTO 07006KT 3SM BR OVC004 08/07 A3001 RMK AO2 T00780067
KAMW 241653Z AUTO 08006KT 2 1/2SM BR OVC003 07/07 A3001 RMK AO2 SLP166 T00720067
KAMW 241620Z AUTO 08003KT 2SM BR OVC003 07/06 A3002 RMK AO2 T00670061
KAMW 241553Z AUTO 07004KT 1 3/4SM BR OVC003 07/06 A3001 RMK AO2 SLP166 T00670061
KAMW 241526Z AUTO 08005KT 2SM BR OVC004 06/06 A3001 RMK AO2 T00610056 $
KAMW 241453Z AUTO 06004KT 1 3/4SM BR OVC004 06/06 A3001 RMK AO2 SLP166 60001 T00610056 53005 $
KAMW 241353Z AUTO 08003KT 2SM BR OVC004 06/06 A3001 RMK AO2 SLP163 T00610056 $
KAMW 241326Z AUTO 08004KT 2SM BR OVC003 06/05 A3000 RMK AO2 T00560050 $
KAMW 241253Z AUTO 09005KT 1 1/2SM BR OVC003 06/05 A3000 RMK AO2 RAB1158E40 SLP159 P0001 T00560050 $
KAMW 241236Z AUTO 09005KT 1 1/2SM -RA BR OVC003 06/05 A2999 RMK AO2 RAB1158 P0001 T00560050 $
KAMW 241205Z AUTO 09003KT 2 1/2SM -RA BR OVC004 06/05 A3000 RMK AO2 RAB1158 P0001 T00560050 $
KAMW 241153Z AUTO 10003KT 3SM BR OVC004 06/05 A3000 RMK AO2 RAE50 SLP160 P0003 60004 70007 T00560050 10067 20056 56003 $
KAMW 241134Z AUTO 09003KT 3SM -RA BR OVC004 06/05 A3000 RMK AO2 P0003 T00560050 $
KAMW 241110Z AUTO 09003KT 5SM -RA BR BKN005 OVC017 06/04 A3000 RMK AO2 P0000 T00560044 $
KAMW 241102Z AUTO 10003KT 4SM -RA BR SCT006 BKN017 OVC022 06/04 A3000 RMK AO2 P0000 T00560044 $
KAMW 241053Z AUTO 12003KT 4SM -RA BR BKN017 OVC022 06/04 A3000 RMK AO2 RAB48 SLP161 P0001 T00560044 $
KAMW 240953Z AUTO 10005KT 9SM OVC024 06/04 A3000 RMK AO2 SLP159 T00610044 $
KAMW 240853Z AUTO 11006KT 10SM FEW014 OVC026 07/04 A3001 RMK AO2 SLP162 60000 T00670044 58013 $
KAMW 240753Z AUTO 11005KT 10SM OVC022 07/04 A3003 RMK AO2 RAB0655E09 SLP170 P0000 T00670044 $
KAMW 240722Z AUTO 11004KT 10SM BKN020 OVC034 07/04 A3004 RMK AO2 RAB0655E09 P0000 T00670044 $
KAMW 240653Z AUTO 11007KT 9SM FEW020 OVC035 07/04 A3004 RMK AO2 RAE16B38E48 SLP173 P0000 T00670044 $
KAMW 240553Z AUTO 12008KT 10SM -RA OVC036 06/04 A3005 RMK AO2 SLP175 P0002 60003 T00610039 10100 20061 401281039 58012 $
KAMW 240453Z AUTO 11006KT 6SM -RA BKN041 OVC060 07/03 A3006 RMK AO2 RAB18 SLP180 P0001 T00670033 $
KAMW 240353Z AUTO 10004KT 10SM OVC055 07/03 A3008 RMK AO2 RAE10 SLP186 P0000 T00720028 $
KAMW 240253Z AUTO 10004KT 10SM -RA OVC065 08/03 A3008 RMK AO2 RAB16 SLP189 P0000 60000 T00780033 55002 $
KAMW 240153Z AUTO 12004KT 10SM OVC080 08/03 A3008 RMK AO2 SLP190 T00830028 $
KAMW 240053Z AUTO 11005KT 10SM OVC090 09/02 A3009 RMK AO2 SLP193 T00940022 $
KAMW 232353Z AUTO 11008KT 10SM OVC100 10/02 A3009 RMK AO2 SLP193 60000 T01000022 10128 20100 $
KAMW 232253Z AUTO 11009KT 10SM 11/02 A3010 RMK AO2 RAE03 SLP197 P0000 T01060022 $
KAMW 232153Z AUTO 11007KT 10SM -RA BKN075 OVC090 11/02 A3010 RMK AO2 RAB50 SLP198 P0000 T01110017
KAMW 232053Z AUTO 11009KT 10SM OVC110 12/02 A3013 RMK AO2 SLP207 T01170017 58018
KAMW 231953Z AUTO 13005KT 10SM BKN120 11/01 A3014 RMK AO2 SLP209 T01110011
KAMW 231853Z AUTO 15009KT 10SM BKN100 BKN120 11/01 A3017 RMK AO2 SLP222 T01060006
KAMW 231753Z AUTO 15011KT 10SM CLR 12/01 A3018 RMK AO2 SLP223 I6000 T01220006 10122 21033 58010
KAMW 231653Z AUTO 15011KT 10SM CLR 11/01 A3019 RMK AO2 SLP227 T01110011
KAMW 231553Z AUTO 16009KT 10SM CLR 09/01 A3021 RMK AO2 SLP234 T00940006
KAMW 231453Z AUTO 12006KT 10SM CLR 06/00 A3021 RMK AO2 SLP235 I3000 T00560000 58004
KAMW 231353Z AUTO 00000KT 10SM CLR 02/M02 A3022 RMK AO2 SLP240 T00171017